Time;durP1;ratioP1;P1;durP2;ratioP2;P2;SDS_P1;SDS_P2;PMS_P1;PMS_P2;Temp;Humidity;BMP_temperature;BMP_pressure;BME280_temperature;BME280_humidity;BME280_pressure;Samples;Min_cycle;Max_cycle;Signal;HPM_P1;HPM_P2
2021/03/26 00:00:34;;;;;;;0.70;0.60;;;8.90;99.90;;;9.30;100.00;61664.00;5034545;28;20488;-71
2021/03/26 00:03:03;;;;;;;0.70;0.53;;;8.80;99.90;;;9.34;100.00;61340.41;5032530;28;20817;-71
2021/03/26 00:05:30;;;;;;;0.70;0.60;;;8.80;99.90;;;9.10;100.00;58693.88;5033160;28;20800;-72
2021/03/26 00:07:57;;;;;;;0.70;0.60;;;8.60;99.90;;;9.14;100.00;61319.25;5032349;28;20459;-71
2021/03/26 00:10:25;;;;;;;0.70;0.60;;;8.60;99.90;;;9.41;100.00;60692.59;5032843;28;20425;-71
2021/03/26 00:12:53;;;;;;;0.70;0.60;;;8.80;99.90;;;9.30;100.00;57730.75;5033953;28;20777;-71
2021/03/26 00:15:20;;;;;;;0.70;0.60;;;8.90;99.90;;;9.13;100.00;58041.88;5034145;28;20423;-71
2021/03/26 00:17:46;;;;;;;0.70;0.50;;;8.80;99.90;;;9.29;100.00;60023.53;5033160;28;20431;-72
2021/03/26 00:20:15;;;;;;;0.70;0.60;;;8.80;99.90;;;9.39;100.00;58068.13;5033352;28;20515;-72
2021/03/26 00:22:42;;;;;;;0.70;0.57;;;8.80;99.90;;;9.37;100.00;55772.75;5033465;28;20453;-72
2021/03/26 00:25:11;;;;;;;0.70;0.60;;;8.90;99.90;;;9.32;100.00;56422.69;5032799;28;20464;-72
2021/03/26 00:27:39;;;;;;;0.70;0.60;;;8.80;99.90;;;9.23;100.00;56413.66;5014199;28;20512;-71
2021/03/26 00:30:09;;;;;;;0.70;0.57;;;8.80;99.90;;;9.12;100.00;59678.81;5031239;28;20570;-71
2021/03/26 00:32:38;;;;;;;0.70;0.57;;;8.70;99.90;;;8.97;100.00;60317.69;5033624;28;20424;-71
2021/03/26 00:35:10;;;;;;;0.80;0.70;;;8.60;99.90;;;8.62;100.00;61264.47;5033768;28;20429;-71
2021/03/26 00:37:37;;;;;;;0.70;0.50;;;8.30;99.90;;;8.33;100.00;65492.00;5033725;28;20786;-71
2021/03/26 00:40:07;;;;;;;0.70;0.60;;;7.90;99.90;;;8.03;100.00;69392.03;5033746;28;20453;-72
2021/03/26 00:42:35;;;;;;;0.70;0.60;;;7.60;99.90;;;7.77;100.00;74283.50;5033558;28;20987;-71
2021/03/26 00:45:05;;;;;;;0.70;0.70;;;7.40;99.90;;;7.53;100.00;76879.75;5032154;28;20805;-71
2021/03/26 00:47:32;;;;;;;0.70;0.60;;;7.10;99.90;;;7.43;100.00;80810.44;5031843;28;21040;-71
2021/03/26 00:50:00;;;;;;;0.70;0.60;;;6.90;99.90;;;7.25;100.00;83416.44;5033170;28;20448;-71
2021/03/26 00:52:27;;;;;;;0.70;0.60;;;6.90;99.90;;;7.08;100.00;83390.91;5033524;28;20417;-71
2021/03/26 00:54:54;;;;;;;0.70;0.60;;;6.70;99.90;;;7.03;100.00;83384.34;5032074;28;20828;-71
2021/03/26 00:57:21;;;;;;;2.30;2.20;;;6.60;99.90;;;7.10;100.00;81421.09;5033409;28;20413;-71
2021/03/26 00:59:49;;;;;;;0.70;0.60;;;6.70;99.90;;;7.03;100.00;78126.84;5031560;28;20435;-71
2021/03/26 01:02:17;;;;;;;0.80;0.73;;;6.60;99.90;;;7.16;100.00;75518.34;5032014;28;20632;-71
2021/03/26 01:04:44;;;;;;;0.70;0.60;;;6.70;99.90;;;7.01;100.00;70253.81;5032786;28;20396;-71
2021/03/26 01:07:11;;;;;;;0.70;0.70;;;6.70;99.90;;;6.90;100.00;63041.81;5028196;28;20948;-71
2021/03/26 01:09:38;;;;;;;0.70;0.60;;;6.50;99.90;;;6.74;100.00;58127.44;5030620;28;20208;-71
2021/03/26 01:12:06;;;;;;;0.70;0.60;;;6.30;99.90;;;6.68;100.00;54208.09;5031876;28;20323;-71
2021/03/26 01:14:33;;;;;;;0.70;0.60;;;6.30;99.90;;;6.82;100.00;51289.00;5064930;28;20510;-71
2021/03/26 01:17:02;;;;;;;0.70;0.50;;;6.30;99.90;;;6.90;100.00;47390.66;5031549;28;20448;-71
2021/03/26 01:19:31;;;;;;;0.70;0.60;;;6.50;99.90;;;7.31;100.00;43520.13;5065300;28;20468;-71
2021/03/26 01:21:57;;;;;;;0.70;0.60;;;6.90;99.90;;;7.55;100.00;40937.69;5065039;28;20471;-71
2021/03/26 01:24:25;;;;;;;0.70;0.70;;;7.20;99.90;;;7.64;100.00;39103.56;5012418;28;20972;-71
2021/03/26 01:26:53;;;;;;;0.70;0.70;;;7.20;99.90;;;7.62;100.00;36176.44;5012584;28;20461;-71
2021/03/26 01:29:27;;;;;;;0.70;0.60;;;7.20;99.90;;;7.40;100.00;31961.50;5031855;28;20193;-71
2021/03/26 01:32:06;;;;;;;2.77;2.50;;;7.10;99.90;;;7.33;100.00;29462.31;5030393;28;20769;-71
2021/03/26 01:34:38;;;;;;;0.70;0.50;;;7.00;99.90;;;7.25;100.00;27078.50;5031562;28;20470;-71
2021/03/26 01:37:06;;;;;;;1.10;0.87;;;6.90;99.90;;;7.20;100.00;20818.97;5031234;28;20463;-71
2021/03/26 01:39:53;;;;;;;0.70;0.60;;;6.80;99.90;;;7.11;100.00;18377.09;5018007;28;21060;-71
2021/03/26 01:42:26;;;;;;;0.70;0.50;;;6.70;99.90;;;6.99;100.00;12808.13;5031654;28;20556;-71
2021/03/26 01:44:56;;;;;;;0.70;0.70;;;6.60;99.90;;;7.29;100.00;13757.66;5011917;28;20858;-71
2021/03/26 01:47:29;;;;;;;0.70;0.60;;;6.70;99.90;;;7.11;100.00;13636.91;5021102;28;20196;-71
2021/03/26 01:50:01;;;;;;;0.70;0.60;;;6.70;99.90;;;7.10;100.00;14175.25;5031289;28;20727;-71
2021/03/26 01:52:29;;;;;;;0.70;0.60;;;6.70;99.90;;;7.11;100.00;13830.72;5031473;28;20194;-72
2021/03/26 01:54:58;;;;;;;0.70;0.60;;;6.80;99.90;;;7.17;100.00;14242.81;5033347;28;20410;-71
2021/03/26 01:57:25;;;;;;;0.70;0.60;;;6.90;99.90;;;7.36;100.00;14794.75;5032703;28;20437;-71
2021/03/26 01:59:59;;;;;;;0.70;0.60;;;7.00;99.90;;;7.64;100.00;15804.00;5015169;28;20658;-71
2021/03/26 02:02:28;;;;;;;0.70;0.60;;;7.30;99.90;;;7.56;100.00;15937.50;5032565;28;20273;-71
2021/03/26 02:05:30;;;;;;;0.70;0.60;;;7.20;99.90;;;7.47;100.00;15438.13;5031264;28;20607;-71
2021/03/26 02:08:20;;;;;;;0.70;0.60;;;6.90;99.90;;;7.14;100.00;13886.81;5032809;28;20321;-71
2021/03/26 02:11:06;;;;;;;0.70;0.60;;;6.70;99.90;;;7.06;100.00;13164.84;5031202;28;20461;-71
2021/03/26 02:13:39;;;;;;;0.70;0.60;;;6.60;99.90;;;6.94;100.00;11873.63;5031243;28;20454;-71
2021/03/26 02:16:18;;;;;;;0.70;0.60;;;6.60;99.90;;;6.84;100.00;10299.84;5031502;28;20449;-71
2021/03/26 02:19:08;;;;;;;0.70;0.60;;;6.40;99.90;;;6.66;100.00;8484.81;5034792;28;20222;-71
2021/03/26 02:21:43;;;;;;;0.70;0.60;;;6.10;99.90;;;6.49;100.00;6762.22;5035168;28;20218;-71
2021/03/26 02:24:11;;;;;;;0.70;0.60;;;6.00;99.90;;;6.45;100.00;5085.94;5053948;28;20930;-71
2021/03/26 02:26:44;;;;;;;0.70;0.63;;;6.00;99.90;;;6.32;100.00;3184.13;5040773;28;20811;-71
2021/03/26 02:29:24;;;;;;;0.70;0.57;;;6.00;99.90;;;6.37;100.00;1661.41;5034947;28;20213;-71
2021/03/26 02:32:21;;;;;;;0.70;0.70;;;5.90;99.90;;;6.49;100.00;445.19;5049407;28;20189;-71
2021/03/26 02:35:18;;;;;;;0.70;0.60;;;6.10;99.90;;;6.53;100.00;-1174.50;5016046;28;20194;-71
2021/03/26 02:37:52;;;;;;;0.70;0.60;;;6.20;99.90;;;6.44;100.00;-2681.31;5035860;28;20194;-71
2021/03/26 02:40:29;;;;;;;0.70;0.60;;;6.00;99.90;;;6.41;100.00;-4229.47;5018504;28;20194;-71
2021/03/26 02:43:16;;;;;;;0.70;0.60;;;5.90;99.90;;;6.37;100.00;-5419.38;5034517;28;20202;-71
2021/03/26 02:45:52;;;;;;;0.70;0.60;;;5.80;99.90;;;6.26;100.00;-7372.69;5034482;28;20582;-71
2021/03/26 02:48:30;;;;;;;0.70;0.60;;;5.80;99.90;;;6.31;100.00;-9035.91;5033555;28;20205;-71
2021/03/26 02:51:08;;;;;;;0.70;0.60;;;5.80;99.90;;;6.12;100.00;-10681.00;5066817;28;20608;-71
2021/03/26 02:53:57;;;;;;;0.70;0.63;;;5.70;99.90;;;6.11;100.00;-11910.31;5059658;28;20194;-71
2021/03/26 02:56:36;;;;;;;0.70;0.60;;;5.60;99.90;;;6.16;100.00;-12868.41;5034403;28;20273;-71
2021/03/26 02:59:11;;;;;;;0.70;0.60;;;5.70;99.90;;;6.18;100.00;-14092.50;5067179;28;20194;-71
2021/03/26 03:01:47;;;;;;;0.70;0.60;;;5.60;99.90;;;6.24;100.00;-15065.22;5032313;28;20201;-71
2021/03/26 03:04:18;;;;;;;0.70;0.60;;;5.60;99.90;;;6.34;100.00;-15625.06;5033788;28;20217;-71
2021/03/26 03:06:52;;;;;;;0.70;0.50;;;5.80;99.90;;;6.38;100.00;-16333.38;5035447;28;20183;-71
2021/03/26 03:09:43;;;;;;;0.70;0.60;;;5.80;99.90;;;6.34;100.00;-17333.72;5035013;28;20667;-71
2021/03/26 03:12:18;;;;;;;0.70;0.50;;;5.90;99.90;;;6.21;100.00;-18010.53;5033556;28;20194;-71
2021/03/26 03:14:57;;;;;;;0.70;0.60;;;5.80;99.90;;;6.36;100.00;-18633.75;5034521;28;20190;-71
2021/03/26 03:17:29;;;;;;;0.70;0.60;;;5.80;99.90;;;6.34;100.00;-19253.13;5034439;28;20610;-71
2021/03/26 03:20:14;;;;;;;0.70;0.60;;;5.80;99.90;;;6.31;100.00;-19864.34;5047118;28;20218;-71
2021/03/26 03:22:51;;;;;;;0.70;0.60;;;5.80;99.90;;;6.28;100.00;-20284.28;5034569;28;20225;-71
2021/03/26 03:25:24;;;;;;;0.70;0.60;;;5.70;99.90;;;6.27;100.00;-20776.50;5034114;28;20670;-71
2021/03/26 03:28:08;;;;;;;0.70;0.60;;;5.90;99.90;;;6.29;100.00;-20853.41;5033972;28;20199;-71
2021/03/26 03:30:44;;;;;;;0.70;0.60;;;5.80;99.90;;;6.23;100.00;-20851.88;5012744;28;20227;-71
2021/03/26 03:33:18;;;;;;;0.70;0.60;;;5.80;99.90;;;6.17;100.00;-20850.19;5026206;28;20701;-71
2021/03/26 03:35:57;;;;;;;0.70;0.60;;;5.80;99.90;;;6.25;100.00;-20852.28;5033568;28;20205;-71
2021/03/26 03:38:49;;;;;;;0.70;0.60;;;5.80;99.90;;;6.16;100.00;-20849.78;5033571;28;20618;-71
2021/03/26 03:41:33;;;;;;;0.70;0.60;;;5.80;99.90;;;6.30;100.00;-20853.69;5049707;28;20230;-71
2021/03/26 03:44:13;;;;;;;0.70;0.60;;;5.90;99.90;;;6.21;100.00;-20851.31;5013786;28;20190;-70
2021/03/26 03:47:01;;;;;;;0.70;0.60;;;5.80;99.90;;;6.28;100.00;-20853.25;5016813;28;20231;-70
2021/03/26 03:49:47;;;;;;;0.70;0.60;;;5.80;99.90;;;6.25;100.00;-20852.28;5066641;28;20695;-70
2021/03/26 03:52:23;;;;;;;0.70;0.60;;;5.80;99.90;;;6.09;100.00;-20847.97;5034259;28;20182;-70
2021/03/26 03:54:58;;;;;;;0.70;0.60;;;5.70;99.90;;;5.98;100.00;-20844.91;5033647;28;20194;-70
2021/03/26 03:57:41;;;;;;;0.70;0.60;;;5.60;99.90;;;5.87;100.00;-20841.84;5033362;28;20198;-70
2021/03/26 04:00:16;;;;;;;0.90;0.85;;;5.40;99.90;;;5.95;100.00;-20844.22;5032236;28;20198;-70
2021/03/26 04:02:53;;;;;;;0.70;0.70;;;5.40;99.90;;;5.71;100.00;-20837.53;5022118;28;20179;-70
2021/03/26 04:05:29;;;;;;;0.70;0.60;;;5.20;99.90;;;5.63;100.00;-20835.44;5032806;28;20618;-70
2021/03/26 04:08:06;;;;;;;0.70;0.60;;;5.10;99.90;;;5.57;100.00;-20833.78;5033059;28;20204;-70
2021/03/26 04:10:39;;;;;;;0.70;0.60;;;5.00;99.90;;;5.51;100.00;-20832.13;5032947;28;20186;-69
2021/03/26 04:13:12;;;;;;;0.70;0.60;;;4.90;99.90;;;5.32;100.00;-20827.09;5032548;28;20186;-70
2021/03/26 04:15:49;;;;;;;0.70;0.50;;;4.90;99.90;;;5.30;100.00;-20826.56;5032620;28;20186;-70
2021/03/26 04:18:30;;;;;;;0.70;0.60;;;4.80;99.90;;;5.58;100.00;-20834.06;5032114;28;20218;-71
2021/03/26 04:21:11;;;;;;;0.70;0.60;;;5.00;99.90;;;5.52;100.00;-20832.38;5033948;28;20252;-71
2021/03/26 04:23:59;;;;;;;2.38;1.35;;;5.00;99.90;;;5.45;100.00;-20830.44;5032925;28;20194;-71
2021/03/26 04:26:46;;;;;;;0.70;0.60;;;5.00;99.90;;;5.42;100.00;-20829.75;5012945;28;20268;-71
2021/03/26 04:29:50;;;;;;;0.70;0.60;;;4.90;99.90;;;5.43;100.00;-20829.88;5005223;28;20206;-72
2021/03/26 04:32:26;;;;;;;0.70;0.60;;;5.00;99.90;;;5.48;100.00;-20831.41;5057735;28;20221;-72
2021/03/26 04:34:55;;;;;;;0.73;0.60;;;5.10;99.90;;;5.70;100.00;-20837.41;5030982;28;20217;-72
2021/03/26 04:37:32;;;;;;;0.70;0.60;;;5.30;99.90;;;6.08;100.00;-20847.69;5024209;28;20276;-71
2021/03/26 04:40:12;;;;;;;0.70;0.60;;;5.50;99.90;;;6.07;100.00;-20847.41;5027294;28;20658;-72
2021/03/26 04:42:51;;;;;;;0.70;0.50;;;5.60;99.90;;;6.08;100.00;-20847.69;5022316;28;20224;-70
2021/03/26 04:45:27;;;;;;;0.70;0.60;;;5.60;99.90;;;5.93;100.00;-20843.53;5012741;28;20692;-70
2021/03/26 04:48:14;;;;;;;0.70;0.50;;;5.40;99.90;;;5.85;100.00;-20841.28;5030410;28;20218;-71
2021/03/26 04:51:17;;;;;;;0.70;0.60;;;5.30;99.90;;;5.80;100.00;-20840.19;5032238;28;20540;-70
2021/03/26 04:54:31;;;;;;;0.70;0.60;;;5.30;99.90;;;5.85;100.00;-20841.28;5016089;28;20183;-70
2021/03/26 04:57:11;;;;;;;0.70;0.60;;;5.20;99.90;;;6.07;100.00;-20847.41;5010534;28;20570;-70
2021/03/26 04:59:51;;;;;;;0.70;0.60;;;5.40;99.90;;;6.08;100.00;-20847.69;5024414;28;20259;-70
2021/03/26 05:02:23;;;;;;;0.70;0.60;;;5.60;99.90;;;6.12;100.00;-20848.66;5029671;28;20578;-71
2021/03/26 05:04:56;;;;;;;0.70;0.60;;;5.60;99.90;;;6.25;100.00;-20852.41;5016421;28;20221;-70
2021/03/26 05:07:45;;;;;;;0.90;0.90;;;5.60;99.90;;;6.26;100.00;-20852.56;5030212;28;20656;-70
2021/03/26 05:10:18;;;;;;;0.70;0.57;;;5.70;99.90;;;6.11;100.00;-20848.53;5028673;28;20278;-71
2021/03/26 05:13:12;;;;;;;0.80;0.80;;;5.60;99.90;;;6.15;100.00;-20849.66;5027312;28;20221;-71
2021/03/26 05:15:52;;;;;;;0.70;0.60;;;5.60;99.90;;;6.28;100.00;-20853.25;5019295;28;20185;-71
2021/03/26 05:18:32;;;;;;;0.68;0.57;;;5.70;99.90;;;6.17;100.00;-20850.06;5032123;28;20297;-71
2021/03/26 05:21:14;;;;;;;0.70;0.60;;;5.60;99.90;;;6.07;100.00;-20847.28;5031223;28;20209;-71
2021/03/26 05:24:13;;;;;;;0.70;0.60;;;5.50;99.90;;;5.97;100.00;-20844.78;5029227;28;20249;-71
2021/03/26 05:26:59;;;;;;;0.70;0.50;;;5.50;99.90;;;5.85;100.00;-20841.28;5032495;28;20769;-71
2021/03/26 05:29:47;;;;;;;0.70;0.60;;;5.40;99.90;;;5.75;100.00;-20838.78;5029190;28;20210;-71
2021/03/26 05:32:20;;;;;;;0.70;0.60;;;5.30;99.90;;;5.76;100.00;-20838.94;5045007;28;20546;-71
2021/03/26 05:35:19;;;;;;;1.85;1.67;;;5.20;99.90;;;5.74;100.00;-20838.38;5012079;28;20195;-71
2021/03/26 05:38:14;;;;;;;0.70;0.60;;;5.20;99.90;;;5.95;100.00;-20844.09;5021435;28;20201;-70
2021/03/26 05:41:35;;;;;;;0.70;0.60;;;5.30;99.90;;;6.03;100.00;-20846.31;5032300;28;20217;-70
2021/03/26 05:44:34;;;;;;;0.70;0.60;;;5.40;99.90;;;6.12;100.00;-20848.81;5027702;28;20198;-71
2021/03/26 05:47:24;;;;;;;0.70;0.60;;;5.50;99.90;;;6.28;100.00;-20853.13;5031590;28;20210;-69
2021/03/26 05:50:18;;;;;;;0.70;0.60;;;5.60;99.90;;;6.23;100.00;-20851.88;5030871;28;20218;-71
2021/03/26 05:53:08;;;;;;;0.70;0.70;;;5.60;99.90;;;6.42;100.00;-20856.88;5031626;28;20685;-70
2021/03/26 05:56:10;;;;;;;0.90;0.90;;;5.70;99.90;;;6.49;100.00;-20858.81;5017028;28;20222;-70
2021/03/26 05:59:17;;;;;;;0.60;0.50;;;5.80;99.90;;;6.58;100.00;-20861.31;5015856;28;20206;-70
2021/03/26 06:02:08;;;;;;;0.70;0.50;;;5.90;99.90;;;6.80;100.00;-20867.16;5017009;28;20206;-70
2021/03/26 06:05:42;;;;;;;0.70;0.50;;;6.00;99.90;;;6.92;100.00;-20870.63;5016429;28;20730;-70
2021/03/26 06:08:58;;;;;;;0.70;0.70;;;6.20;99.90;;;7.18;100.00;-20877.72;4937551;29;20225;-71
2021/03/26 06:12:14;;;;;;;0.70;0.60;;;6.50;99.90;;;7.54;100.00;-20887.44;4952455;28;20203;-71
2021/03/26 06:15:49;;;;;;;0.75;0.70;;;7.00;99.90;;;7.79;100.00;-20894.09;5036442;28;20209;-71
2021/03/26 06:19:23;;;;;;;0.60;0.60;;;7.10;99.90;;;7.84;100.00;-20895.47;5036398;28;20220;-70
2021/03/26 06:23:05;;;;;;;0.65;0.60;;;7.00;99.90;;;7.88;100.00;-20896.59;4992131;28;20467;-72
2021/03/26 06:26:23;;;;;;;0.70;0.60;;;7.00;99.90;;;7.89;100.00;-20896.88;5019603;28;20249;-70
2021/03/26 06:29:03;;;;;;;0.70;0.50;;;7.10;99.90;;;7.99;100.00;-20899.66;5035127;28;20189;-70
2021/03/26 06:32:25;;;;;;;0.70;0.60;;;7.20;99.90;;;8.05;100.00;-20901.31;5035011;28;20438;-70
2021/03/26 06:36:07;;;;;;;0.70;0.70;;;7.20;99.90;;;8.15;100.00;-20904.09;5034225;28;20431;-72
2021/03/26 06:39:03;;;;;;;5.13;2.07;;;7.40;99.90;;;8.26;100.00;-20906.88;4994965;28;20804;-71
2021/03/26 06:41:56;;;;;;;0.67;0.60;;;7.30;99.90;;;8.33;100.00;-20908.81;4994816;28;20464;-70
2021/03/26 06:45:07;;;;;;;0.70;0.60;;;7.50;99.90;;;8.34;100.00;-20909.09;5016567;28;20777;-71
2021/03/26 06:47:58;;;;;;;0.67;0.50;;;7.50;99.90;;;8.53;100.00;-20914.34;5016338;28;20421;-70
2021/03/26 06:50:46;;;;;;;0.70;0.50;;;7.70;99.90;;;8.64;100.00;-20917.41;5016253;28;20417;-72
2021/03/26 06:53:29;;;;;;;0.70;0.70;;;7.70;99.90;;;8.82;100.00;-20922.13;5034946;28;20447;-70
2021/03/26 06:56:42;;;;;;;0.80;0.80;;;7.80;99.90;;;8.83;100.00;-20922.41;5036135;28;20421;-71
2021/03/26 06:59:44;;;;;;;1.10;1.00;;;8.00;99.90;;;9.08;100.00;-20100.25;5035759;28;20767;-71
2021/03/26 07:02:53;;;;;;;0.70;0.60;;;8.10;99.90;;;9.15;100.00;-18049.66;4992412;28;20492;-71
2021/03/26 07:05:45;;;;;;;2.10;1.00;;;8.30;99.90;;;9.32;100.00;-15167.81;5011430;28;20445;-71
2021/03/26 07:09:26;;;;;;;0.70;0.50;;;8.40;99.90;;;9.80;100.00;-10354.41;5015832;28;20756;-71
2021/03/26 07:12:09;;;;;;;0.70;0.60;;;8.70;99.90;;;10.15;100.00;-4484.91;5017849;28;20518;-72
2021/03/26 07:14:55;;;;;;;1.07;0.97;;;9.20;99.90;;;10.31;100.00;4052.81;5035157;28;20413;-71
2021/03/26 07:17:53;;;;;;;0.80;0.73;;;9.30;99.90;;;10.81;100.00;14727.88;5035521;28;20419;-71
2021/03/26 07:21:08;;;;;;;0.80;0.70;;;9.50;99.90;;;10.97;100.00;19029.59;5035059;28;20511;-71
2021/03/26 07:24:42;;;;;;;0.80;0.70;;;9.70;99.90;;;11.46;100.00;15703.38;5035032;28;20416;-71
2021/03/26 07:27:20;;;;;;;0.80;0.80;;;10.00;99.90;;;11.66;100.00;7381.25;5035165;28;20436;-72
2021/03/26 07:30:31;;;;;;;0.70;0.50;;;10.10;99.90;;;11.32;100.00;-7475.63;5034909;28;20569;-71
2021/03/26 07:33:25;;;;;;;1.20;1.10;;;10.20;99.90;;;11.43;100.00;-16021.91;5030531;28;20461;-73
2021/03/26 07:36:28;;;;;;;0.70;0.60;;;10.30;99.90;;;11.43;100.00;-20409.25;5034736;28;20437;-72
2021/03/26 07:39:32;;;;;;;3.03;2.30;;;10.40;99.90;;;11.81;100.00;-21003.22;5034972;28;20423;-72
2021/03/26 07:42:36;;;;;;;1.47;1.37;;;10.40;99.90;;;11.97;100.00;-21007.63;5034971;28;20515;-72
2021/03/26 07:45:48;;;;;;;2.30;1.47;;;10.60;99.90;;;12.21;100.00;-21014.00;5034316;28;20417;-72
2021/03/26 07:48:50;;;;;;;1.17;1.07;;;10.80;99.90;;;12.18;100.00;-21013.28;5034181;28;20441;-72
2021/03/26 07:51:25;;;;;;;0.70;0.70;;;10.90;99.90;;;12.56;100.00;-21023.66;5034596;28;20459;-72
2021/03/26 07:54:15;;;;;;;0.70;0.60;;;10.90;99.90;;;12.90;100.00;-21032.75;5033331;28;20428;-72
2021/03/26 07:57:31;;;;;;;0.80;0.70;;;11.30;99.90;;;13.39;100.00;-21045.84;5034528;28;20426;-72
2021/03/26 08:00:30;;;;;;;0.80;0.70;;;11.50;99.90;;;13.49;100.00;-21048.75;5021539;28;20476;-72
2021/03/26 08:04:06;;;;;;;0.70;0.60;;;11.60;99.90;;;14.34;100.00;-21071.47;5018234;28;20491;-72
2021/03/26 08:07:43;;;;;;;0.70;0.60;;;11.90;99.90;;;14.35;100.00;-21071.88;5028882;28;20811;-72
2021/03/26 08:10:34;;;;;;;1.50;1.40;;;12.30;99.90;;;14.80;100.00;-21084.00;5034446;28;20469;-72
2021/03/26 08:13:40;;;;;;;1.00;0.80;;;12.40;99.90;;;14.43;100.00;-21074.09;5034266;28;20472;-72
2021/03/26 08:16:56;;;;;;;0.80;0.70;;;12.50;99.90;;;14.49;100.00;-21075.75;5033013;28;20451;-71
2021/03/26 08:19:36;;;;;;;0.80;0.70;;;12.60;99.90;;;15.00;100.00;-21089.38;5018249;28;20964;-71
2021/03/26 08:22:17;;;;;;;1.70;0.90;;;13.00;99.90;;;15.31;100.00;-21097.75;5033317;28;20460;-72
2021/03/26 08:25:19;;;;;;;0.80;0.60;;;13.00;99.90;;;15.72;100.00;-21108.75;5033985;28;20481;-73
2021/03/26 08:28:09;;;;;;;1.63;1.53;;;13.40;99.90;;;16.61;100.00;-21132.66;5033798;28;20407;-70
2021/03/26 08:30:56;;;;;;;1.10;1.00;;;13.50;99.90;;;16.63;100.00;-21133.22;5034428;28;20380;-72
2021/03/26 08:34:07;;;;;;;0.70;0.60;;;13.70;99.90;;;16.62;100.00;-21133.06;5031516;28;20903;-73
2021/03/26 08:36:39;;;;;;;0.70;0.60;;;14.10;99.90;;;17.13;100.00;-21146.66;5020797;28;20423;-73
2021/03/26 08:39:31;;;;;;;5.83;1.70;;;14.20;99.90;;;16.59;100.00;-21132.13;5033696;28;20754;-74
2021/03/26 08:42:09;;;;;;;0.80;0.70;;;14.00;99.90;;;16.38;100.00;-21126.63;5033867;28;20482;-72
2021/03/26 08:44:37;;;;;;;1.67;0.90;;;14.30;99.90;;;17.24;100.00;-21149.69;5031253;28;20946;-73
2021/03/26 08:47:15;;;;;;;1.57;1.07;;;14.60;99.90;;;17.81;100.00;-21165.03;5033755;28;20400;-71
2021/03/26 08:49:52;;;;;;;0.70;0.50;;;14.70;99.90;;;16.73;100.00;-21135.97;5033264;28;20465;-71
2021/03/26 08:53:13;;;;;;;0.87;0.87;;;14.50;99.90;;;16.71;100.00;-21135.41;5013115;28;20972;-72
2021/03/26 08:56:26;;;;;;;1.27;0.77;;;14.80;99.90;;;18.12;100.00;-21173.25;5028078;28;20446;-72
2021/03/26 08:59:23;;;;;;;1.73;1.63;;;15.10;99.90;;;18.73;100.00;-21189.69;4992421;28;20446;-73
2021/03/26 09:02:36;;;;;;;1.83;1.73;;;15.40;99.90;;;17.95;100.00;-21168.75;5012088;28;20480;-72
2021/03/26 09:05:36;;;;;;;5.17;1.33;;;15.70;99.90;;;17.07;100.00;-21145.16;4981640;28;20484;-72
2021/03/26 09:08:48;;;;;;;0.80;0.60;;;15.20;99.90;;;17.44;100.00;-21155.03;5023349;28;20526;-73
2021/03/26 09:11:44;;;;;;;2.10;0.93;;;15.00;99.90;;;17.95;100.00;-21168.75;5013069;28;20974;-74
2021/03/26 09:15:06;;;;;;;0.80;0.80;;;15.60;99.90;;;18.42;100.00;-21181.34;5013502;28;20440;-74
2021/03/26 09:17:42;;;;;;;0.70;0.50;;;16.10;99.90;;;19.57;100.00;-21212.00;5012862;28;20469;-74
2021/03/26 09:20:25;;;;;;;0.80;0.63;;;15.80;99.90;;;18.73;100.00;-21189.56;5013092;28;20418;-74
2021/03/26 09:23:52;;;;;;;1.10;0.80;;;16.10;99.90;;;18.56;100.00;-21185.03;5013078;28;20461;-74
2021/03/26 09:26:50;;;;;;;0.80;0.80;;;16.40;99.90;;;19.10;100.00;-21199.41;4983057;28;20449;-74
2021/03/26 09:29:22;;;;;;;0.70;0.60;;;16.50;99.50;;;19.12;100.00;-21199.97;5017334;28;20521;-74
2021/03/26 09:31:57;;;;;;;1.43;1.33;;;16.30;96.30;;;19.27;100.00;-21204.19;5017521;28;20445;-74
2021/03/26 09:34:31;;;;;;;0.70;0.60;;;16.60;96.50;;;18.41;100.00;-21180.94;5016833;28;20441;-73
2021/03/26 09:37:13;;;;;;;0.80;0.73;;;16.50;93.60;;;18.94;100.00;-21195.31;5035360;28;20468;-74
2021/03/26 09:39:49;;;;;;;0.70;0.60;;;16.00;92.10;;;19.71;100.00;-21215.97;5037317;28;20901;-74
2021/03/26 09:42:40;;;;;;;0.80;0.60;;;16.30;92.00;;;18.41;100.00;-21181.06;5035658;28;21048;-74
2021/03/26 09:45:23;;;;;;;1.67;1.57;;;16.40;89.80;;;17.81;100.00;-21164.91;5035729;28;20797;-74
2021/03/26 09:48:22;;;;;;;1.63;1.27;;;16.00;88.00;;;17.36;100.00;-21152.97;5036955;28;20443;-74
2021/03/26 09:51:02;;;;;;;0.70;0.60;;;15.80;91.10;;;17.82;100.00;-21165.19;5036491;28;20428;-74
2021/03/26 09:53:36;;;;;;;0.70;0.60;;;15.50;92.90;;;17.56;100.00;-21158.19;5036934;28;20474;-74
2021/03/26 09:56:36;;;;;;;1.57;1.47;;;15.70;90.20;;;18.10;100.00;-21172.72;5036657;28;20384;-74
2021/03/26 09:59:21;;;;;;;0.80;0.80;;;16.10;87.00;;;17.92;100.00;-21167.91;5034699;28;20421;-74
2021/03/26 10:01:58;;;;;;;0.80;0.70;;;15.60;87.40;;;18.61;100.00;-21186.41;5035402;28;20807;-74
2021/03/26 10:04:36;;;;;;;0.70;0.60;;;16.20;87.50;;;18.01;100.00;-21170.25;5036481;28;20459;-74
2021/03/26 10:07:18;;;;;;;1.20;1.10;;;16.20;81.10;;;18.26;100.00;-21177.09;5035955;28;20433;-73
2021/03/26 10:10:01;;;;;;;1.10;1.00;;;15.70;79.20;;;16.99;100.00;-21142.81;5036696;28;20383;-74
2021/03/26 10:12:41;;;;;;;1.60;0.90;;;15.50;77.40;;;18.19;100.00;-21175.19;5034926;28;20523;-74
2021/03/26 10:15:24;;;;;;;1.00;1.00;;;15.90;75.40;;;16.51;100.00;-21130.06;5036177;28;20501;-74
2021/03/26 10:18:01;;;;;;;0.80;0.60;;;15.40;75.60;;;16.35;100.00;-21125.66;5068329;28;20788;-74
2021/03/26 10:20:44;;;;;;;2.30;2.20;;;15.20;75.00;;;16.71;100.00;-21135.41;5054129;28;21013;-74
2021/03/26 10:23:34;;;;;;;0.73;0.63;;;14.90;76.50;;;17.15;100.00;-21147.22;5035987;28;20460;-74
2021/03/26 10:26:12;;;;;;;1.57;0.97;;;14.90;79.00;;;16.69;100.00;-21134.72;5034861;28;20466;-74
2021/03/26 10:29:12;;;;;;;0.70;0.60;;;15.20;77.30;;;16.97;100.00;-21142.28;5035849;28;20410;-74
2021/03/26 10:31:42;;;;;;;0.80;0.60;;;15.50;75.70;;;18.39;100.00;-21180.38;5025788;28;20447;-74
2021/03/26 10:34:13;;;;;;;0.70;0.60;;;16.70;72.90;;;19.82;100.00;-21218.69;5034509;28;20461;-74
2021/03/26 10:36:51;;;;;;;0.80;0.60;;;17.90;67.90;;;20.31;100.00;-21231.81;5034520;28;20432;-74
2021/03/26 10:39:24;;;;;;;0.70;0.60;;;18.20;57.50;;;19.77;100.00;-21217.47;5034009;28;20816;-73
2021/03/26 10:42:13;;;;;;;0.80;0.80;;;16.90;52.00;;;17.92;100.00;-21167.91;5067836;28;20496;-74
2021/03/26 10:45:08;;;;;;;0.80;0.70;;;16.20;57.60;;;16.80;100.00;-21137.75;5035686;28;20384;-74
2021/03/26 10:47:45;;;;;;;0.70;0.60;;;15.70;59.80;;;16.17;100.00;-21120.84;5035921;28;20431;-74
2021/03/26 10:50:33;;;;;;;0.73;0.60;;;15.20;62.50;;;16.62;100.00;-21132.94;5035737;28;20500;-74
2021/03/26 10:53:06;;;;;;;2.80;2.60;;;15.20;65.30;;;17.63;100.00;-21160.09;5035797;28;20444;-74
2021/03/26 10:55:47;;;;;;;0.70;0.60;;;16.10;65.10;;;19.81;100.00;-21218.41;5035758;28;20413;-74
2021/03/26 10:58:30;;;;;;;0.80;0.70;;;17.30;62.70;;;19.79;100.00;-21218.16;5034405;28;20409;-72
2021/03/26 11:01:10;;;;;;;0.80;0.60;;;17.50;58.20;;;19.42;100.00;-21208.03;5035605;28;20492;-73
2021/03/26 11:03:44;;;;;;;0.70;0.57;;;18.00;51.40;;;20.48;100.00;-21236.47;5035256;28;20446;-74
2021/03/26 11:06:23;;;;;;;0.70;0.60;;;18.10;50.30;;;19.93;100.00;-21221.69;5027275;28;20412;-74
2021/03/26 11:08:58;;;;;;;0.70;0.60;;;18.20;41.60;;;20.88;100.00;-21247.09;5047511;28;20422;-73
2021/03/26 11:11:35;;;;;;;1.43;0.67;;;18.60;43.70;;;21.50;100.00;-21263.75;5015679;28;20414;-74
2021/03/26 11:14:36;;;;;;;1.00;0.90;;;18.70;37.10;;;20.00;100.00;-21223.63;5015586;28;20438;-74
2021/03/26 11:17:26;;;;;;;0.90;0.77;;;18.60;34.70;;;19.21;100.00;-21202.56;5015754;28;20459;-74
2021/03/26 11:20:49;;;;;;;0.70;0.60;;;17.80;35.00;;;19.47;100.00;-21209.41;5015311;28;20425;-74
2021/03/26 11:23:26;;;;;;;0.70;0.60;;;17.90;36.20;;;18.82;100.00;-21192.16;5024454;28;20935;-73
2021/03/26 11:26:15;;;;;;;0.70;0.60;;;17.30;37.30;;;19.25;100.00;-21203.50;5035324;28;20511;-75
2021/03/26 11:28:46;;;;;;;0.70;0.60;;;17.40;39.20;;;18.59;100.00;-21185.84;5033079;28;20417;-74
2021/03/26 11:31:28;;;;;;;0.80;0.70;;;17.30;36.80;;;20.04;100.00;-21224.72;5035423;28;20440;-74
2021/03/26 11:34:09;;;;;;;0.70;0.60;;;18.20;37.90;;;20.77;100.00;-21244.09;5034888;28;20423;-74